Terminal Aerodrome Forecast
Issued by NWS Cleveland, OH

Home | Current Version | Previous Version | Graphics & Text | Print | Product List | Glossary On
Versions: 1 2 3 4 5 6 7 8 9 10 11 12 13 14 15 16 17 18 19 20 21 22 23 24 25 26 27 28 29
000
FTUS41 KCLE 151100
TAFCLE
TAF
KCLE 151123Z 1512/1618 05007KT P6SM OVC200
     FM151500 04012G25KT P6SM OVC200
     FM160000 08008KT P6SM OVC200
     FM161500 12010G20KT P6SM -SHRA SCT050 OVC100
      TEMPO 1615/1618 OVC050=

USA.gov is the U.S. government's official web portal to all federal, state and local government web resources and services.